Conway, Massachusetts
Current Conditions -  °F | °C
As of 8:52 AM on Sunday 23 Nov 2014 (Local Time) from KORE Reporting Station
Few Clouds Few Clouds  
Wind Chill: 39°   Ceiling: Unl
Heat Index: 39°   Visibility: 10mi
Dew Point: 28°   Wind: 0mph
Humidity: 65%   Direction: NA
Pressure: 30.13"   Gusts: NA
Location:  42.51°N, 72.7°W
Report Text: KORE 231352Z AUTO 00000KT 10SM FEW030 04/M02 A3013 RMK AO2 SLP208 T00391022
Loading
Personal Weather Stations






























Interactive Weather Map New forecast layout! Learn more

10-Day Weather Forecast

Advertisements
Track Severe Weather on mobile